Terminal Aerodrome Forecast
Issued by NWS

Home | Current Version | Previous Version | Text Only | Print | Product List | Glossary On
Versions: 1 2 3 4 5 6 7 8 9 10 11 12 13 14 15 16 17 18 19 20 21 22 23 24 25 26 27 28 29 30 31 32 33 34
304
FTUS43 KGRB 242327
TAFATW
TAF
KATW 242327Z 2500/2524 14014G22KT P6SM BKN200
     FM250100 14009KT P6SM BKN150 WS008/17040KT
     FM251000 15009KT P6SM BKN150
     FM251400 15011G17KT P6SM BKN150
     FM252200 10009KT P6SM OVC090=

USA.gov is the U.S. government's official web portal to all federal, state and local government web resources and services.